Historique des stations

Station météo de Yvoy-le-Marron

Altitude de la station : 130 m







Données météorologiques pour le 20/01/2022
Date
Heure
Températures Humidité Point de rosée Vitesse
du vent
Direction Rafales Windchill Pression Pluviométrie
Cumul
Date
Heure
Températures Humidité Point de rosée Vitesse
du vent
Direction Rafales Windchill Pression Pluviométrie
Cumul
20/01/2022 15:327.1 °C82 %4.4 °C2 km/hNNO13 km/h7.2 1031 hPa0.2 mm
20/01/2022 15:297.1 °C81 %3.9 °C3 km/hNNO21 km/h6.7 1031 hPa0.2 mm
20/01/2022 15:177.0 °C83 %4.4 °C5 km/hN14 km/h6.7 1031 hPa0.2 mm
20/01/2022 15:146.9 °C82 %3.9 °C2 km/hNNO21 km/h7.2 1031 hPa0.2 mm
20/01/2022 15:027.0 °C82 %3.9 °C3 km/hNE16 km/h6.7 1031 hPa0.2 mm
20/01/2022 14:597.1 °C82 %4.4 °C5 km/hONO21 km/h6.7 1031 hPa0.2 mm
20/01/2022 14:477.2 °C81 %3.9 °C6 km/hNO10 km/h6.1 1032 hPa0.2 mm
20/01/2022 14:447.2 °C81 %4.4 °C2 km/hNNO21 km/h7.2 1032 hPa0.2 mm
20/01/2022 14:327.3 °C80 %3.9 °C6 km/hNNO19 km/h6.1 1032 hPa0.2 mm
20/01/2022 14:297.3 °C80 %3.9 °C3 km/hENE21 km/h6.7 1032 hPa0.2 mm
20/01/2022 14:177.6 °C80 %4.4 °C6 km/hENE16 km/h6.7 1032 hPa0.2 mm
20/01/2022 14:147.6 °C79 %4.4 °C5 km/hNE21 km/h7.2 1032 hPa0.2 mm
20/01/2022 14:037.7 °C79 %4.4 °C3 km/hN14 km/h7.2 1032 hPa0.2 mm
20/01/2022 13:597.4 °C80 %4.4 °C6 km/hNNE21 km/h6.1 1032 hPa0.2 mm
20/01/2022 13:487.1 °C79 %3.9 °C3 km/hN14 km/h6.7 1031 hPa0.2 mm
20/01/2022 13:447.1 °C80 %3.9 °C8 km/hN21 km/h5.6 1032 hPa0.2 mm
20/01/2022 13:327.4 °C77 %3.9 °C5 km/hNO21 km/h6.7 1032 hPa0.2 mm
20/01/2022 13:297.5 °C77 %3.9 °C6 km/hN21 km/h6.7 1032 hPa0.2 mm
20/01/2022 13:188.1 °C76 %3.9 °C6 km/hNO18 km/h7.2 1032 hPa0.2 mm
20/01/2022 13:148.2 °C76 %4.4 °C3 km/hONO16 km/h7.8 1032 hPa0.2 mm
20/01/2022 13:037.9 °C78 %4.4 °C3 km/hNO16 km/h7.2 1032 hPa0.2 mm
20/01/2022 12:597.8 °C78 %4.4 °C8 km/hNE16 km/h6.1 1032 hPa0.2 mm
20/01/2022 12:487.5 °C83 %5.0 °C2 km/hN10 km/h7.8 1032 hPa0.2 mm
20/01/2022 12:447.3 °C80 %3.9 °C2 km/hENE14 km/h7.2 1032 hPa0.2 mm
20/01/2022 12:337.2 °C83 %4.4 °C5 km/hNO10 km/h6.7 1032 hPa0.2 mm
20/01/2022 12:307.1 °C83 %4.4 °C2 km/hNNO14 km/h7.2 1032 hPa0.2 mm
20/01/2022 12:186.7 °C85 %4.4 °C5 km/hN10 km/h6.1 1032 hPa0.2 mm
20/01/2022 12:156.7 °C85 %4.4 °C3 km/hNNE14 km/h6.1 1032 hPa0.2 mm
20/01/2022 12:036.3 °C86 %3.9 °C5 km/hN13 km/h5.6 1032 hPa0.2 mm
20/01/2022 12:006.2 °C88 %4.4 °C8 km/hENE14 km/h4.4 1032 hPa0.2 mm
20/01/2022 11:485.8 °C90 %4.4 °C3 km/hNNE8 km/h5.0 1032 hPa0.2 mm
20/01/2022 11:455.7 °C90 %4.4 °C5 km/hNE13 km/h5.0 1032 hPa0.2 mm
20/01/2022 11:335.2 °C92 %3.9 °C5 km/hNO8 km/h4.4 1032 hPa0.2 mm
20/01/2022 11:305.1 °C92 %3.9 °C5 km/hNE13 km/h4.4 1032 hPa0.2 mm
20/01/2022 11:184.4 °C94 %3.3 °C5 km/hNO10 km/h3.3 1032 hPa0.2 mm
20/01/2022 11:154.2 °C95 %3.3 °C2 km/hNNO13 km/h3.9 1032 hPa0.2 mm
20/01/2022 11:033.7 °C96 %3.3 °C5 km/hNNE8 km/h2.8 1032 hPa0.2 mm
20/01/2022 11:003.7 °C96 %3.3 °C3 km/hNE13 km/h2.8 1032 hPa0.2 mm
20/01/2022 10:483.3 °C97 %2.8 °C5 km/hN5 km/h2.2 1032 hPa0.2 mm
20/01/2022 10:453.3 °C97 %2.8 °C-NNE13 km/h3.3 1032 hPa0.2 mm
20/01/2022 10:333.0 °C98 %2.8 °C2 km/hNO5 km/h2.2 1032 hPa0.2 mm
20/01/2022 10:303.0 °C97 %2.8 °C-NNO13 km/h2.8 1032 hPa0.2 mm
20/01/2022 10:182.8 °C97 %2.2 °C-NNO6 km/h2.8 1032 hPa0.2 mm
20/01/2022 10:152.8 °C97 %2.2 °C2 km/hN13 km/h2.2 1032 hPa0.2 mm
20/01/2022 10:032.8 °C98 %2.8 °C2 km/hN5 km/h2.2 1032 hPa0.2 mm
20/01/2022 10:002.7 °C97 %2.2 °C3 km/hN13 km/h1.7 1032 hPa0.2 mm
20/01/2022 09:482.5 °C97 %2.2 °C2 km/hNE5 km/h2.2 1032 hPa0.2 mm
20/01/2022 09:452.5 °C97 %2.2 °C2 km/hNE13 km/h2.2 1032 hPa0.2 mm
20/01/2022 09:332.7 °C97 %2.2 °C2 km/hNNO6 km/h2.2 1032 hPa0.2 mm
20/01/2022 09:302.7 °C97 %2.2 °C5 km/hN13 km/h1.7 1032 hPa0.2 mm
20/01/2022 09:182.7 °C97 %2.2 °C3 km/hNNE10 km/h1.7 1032 hPa0.2 mm
20/01/2022 09:152.7 °C97 %2.2 °C2 km/hNNE13 km/h2.2 1032 hPa0.2 mm
20/01/2022 09:032.8 °C97 %2.2 °C3 km/hNNO8 km/h1.7 1031 hPa0.2 mm
20/01/2022 08:592.8 °C97 %2.2 °C2 km/hN13 km/h2.2 1031 hPa0.2 mm
20/01/2022 08:472.9 °C97 %2.8 °C3 km/hNNE6 km/h1.7 1031 hPa0.2 mm
20/01/2022 08:443.0 °C97 %2.8 °C3 km/hNE13 km/h1.7 1031 hPa0.2 mm
20/01/2022 08:323.2 °C97 %2.8 °C3 km/hN10 km/h2.2 1031 hPa0.2 mm
20/01/2022 08:293.2 °C97 %2.8 °C3 km/hN13 km/h2.2 1031 hPa0.2 mm
20/01/2022 08:173.3 °C97 %2.8 °C2 km/hNNE6 km/h2.8 1031 hPa0.2 mm
20/01/2022 08:143.4 °C97 %2.8 °C3 km/hNNE13 km/h2.2 1031 hPa0.2 mm
20/01/2022 08:023.5 °C98 %3.3 °C2 km/hNNE10 km/h2.8 1031 hPa0.2 mm
20/01/2022 07:593.4 °C98 %3.3 °C8 km/hN13 km/h1.1 1031 hPa0.2 mm
20/01/2022 07:473.2 °C97 %2.8 °C5 km/hN8 km/h2.2 1030 hPa0.2 mm
20/01/2022 07:443.1 °C97 %2.8 °C5 km/hNNO13 km/h2.2 1030 hPa0.2 mm
20/01/2022 07:333.1 °C96 %2.8 °C-NO3 km/h3.3 1030 hPa0.2 mm
20/01/2022 07:293.1 °C96 %2.8 °C-N13 km/h3.3 1030 hPa0.2 mm
20/01/2022 07:173.7 °C96 %3.3 °C-N3 km/h3.9 1030 hPa0.2 mm
20/01/2022 07:143.8 °C96 %3.3 °C2 km/hN13 km/h3.3 1030 hPa0.2 mm
20/01/2022 07:024.3 °C97 %3.9 °C2 km/hN6 km/h3.9 1030 hPa0.2 mm
20/01/2022 06:594.4 °C97 %3.9 °C-N13 km/h4.4 1030 hPa0.2 mm
20/01/2022 06:474.6 °C97 %4.4 °C3 km/hNNE13 km/h3.3 1030 hPa0.2 mm
20/01/2022 06:444.6 °C97 %4.4 °C5 km/hNNO13 km/h3.3 1030 hPa0.2 mm
20/01/2022 06:324.8 °C97 %4.4 °C3 km/hNE8 km/h4.4 1030 hPa0.2 mm
20/01/2022 06:294.8 °C97 %4.4 °C3 km/hNNO13 km/h4.4 1030 hPa0.2 mm
20/01/2022 06:174.8 °C98 %4.4 °C3 km/hNNE8 km/h4.4 1029 hPa0.2 mm
20/01/2022 06:144.9 °C98 %4.4 °C5 km/hN13 km/h4.4 1029 hPa0.2 mm
20/01/2022 06:024.9 °C98 %4.4 °C6 km/hNNE13 km/h3.9 1029 hPa0.2 mm
20/01/2022 05:594.8 °C98 %4.4 °C5 km/hNNO11 km/h4.4 1029 hPa0.2 mm
20/01/2022 05:474.8 °C97 %4.4 °C2 km/hNNO3 km/h5.0 1029 hPa0.2 mm
20/01/2022 05:444.8 °C97 %4.4 °C2 km/hNNO11 km/h5.0 1029 hPa0.2 mm
20/01/2022 05:324.9 °C98 %4.4 °C3 km/hNNE6 km/h4.4 1029 hPa0.2 mm
20/01/2022 05:304.9 °C98 %4.4 °C2 km/hNNO11 km/h5.0 1029 hPa0.2 mm
20/01/2022 05:174.9 °C98 %4.4 °C2 km/hNNO5 km/h5.0 1029 hPa0.2 mm
20/01/2022 05:154.9 °C98 %4.4 °C2 km/hNNO11 km/h5.0 1029 hPa0.2 mm
20/01/2022 05:024.9 °C98 %4.4 °C2 km/hNO6 km/h5.0 1029 hPa0.2 mm
20/01/2022 05:004.9 °C98 %4.4 °C2 km/hNO11 km/h5.0 1029 hPa0.2 mm
20/01/2022 04:474.9 °C98 %4.4 °C2 km/hNNO5 km/h5.0 1029 hPa0.2 mm
20/01/2022 04:454.9 °C98 %4.4 °C2 km/hNNO11 km/h5.0 1029 hPa0.2 mm
20/01/2022 04:324.9 °C97 %4.4 °C2 km/hNO10 km/h5.0 1029 hPa0.2 mm
20/01/2022 04:304.9 °C98 %4.4 °C-ONO11 km/h5.0 1029 hPa0.2 mm
20/01/2022 04:174.8 °C98 %4.4 °C3 km/hNNO8 km/h4.4 1029 hPa0.2 mm
20/01/2022 04:154.8 °C98 %4.4 °C2 km/hNO11 km/h5.0 1029 hPa0.2 mm
20/01/2022 04:024.8 °C98 %4.4 °C3 km/hNO8 km/h4.4 1029 hPa0.2 mm
20/01/2022 04:004.8 °C98 %4.4 °C6 km/hNNO11 km/h3.9 1029 hPa0.2 mm
20/01/2022 03:474.8 °C98 %4.4 °C2 km/hN5 km/h5.0 1029 hPa0.2 mm
20/01/2022 03:454.8 °C98 %4.4 °C5 km/hN11 km/h4.4 1029 hPa0.2 mm
20/01/2022 03:334.8 °C98 %4.4 °C-NO10 km/h5.0 1029 hPa0.2 mm
20/01/2022 03:304.7 °C98 %4.4 °C2 km/hOSO11 km/h5.0 1029 hPa0.2 mm
20/01/2022 03:174.7 °C98 %4.4 °C2 km/hNO6 km/h5.0 1029 hPa0.2 mm
20/01/2022 03:154.7 °C98 %4.4 °C-ONO11 km/h5.0 1029 hPa0.2 mm
20/01/2022 03:024.7 °C97 %4.4 °C-ONO3 km/h4.4 1029 hPa0.2 mm
20/01/2022 03:004.7 °C98 %4.4 °C-ONO11 km/h5.0 1028 hPa0.2 mm
20/01/2022 02:474.7 °C97 %4.4 °C2 km/hO5 km/h3.9 1029 hPa0.2 mm
20/01/2022 02:454.7 °C97 %4.4 °C-NO11 km/h5.0 1029 hPa0.2 mm
20/01/2022 02:324.7 °C97 %4.4 °C-O8 km/h4.4 1029 hPa0.2 mm
20/01/2022 02:304.7 °C97 %4.4 °C5 km/hO11 km/h3.3 1029 hPa0.2 mm
20/01/2022 02:174.6 °C97 %4.4 °C5 km/hNE8 km/h3.3 1029 hPa0.2 mm
20/01/2022 02:154.6 °C97 %4.4 °C3 km/hOSO11 km/h3.3 1029 hPa0.2 mm
20/01/2022 02:024.6 °C97 %3.9 °C2 km/hNNO8 km/h3.9 1029 hPa0.2 mm
20/01/2022 02:004.6 °C97 %3.9 °C2 km/hNO10 km/h3.9 1029 hPa0.2 mm
20/01/2022 01:474.6 °C97 %3.9 °C5 km/hNO10 km/h3.3 1029 hPa0.2 mm
20/01/2022 01:454.6 °C97 %3.9 °C5 km/hNNO10 km/h3.3 1029 hPa0.2 mm
20/01/2022 01:324.6 °C97 %3.9 °C2 km/hOSO10 km/h3.9 1029 hPa0.2 mm
20/01/2022 01:304.6 °C97 %3.9 °C2 km/hOSO10 km/h3.9 1029 hPa0.2 mm
20/01/2022 01:174.5 °C97 %3.9 °C2 km/hONO6 km/h3.9 1029 hPa0.2 mm
20/01/2022 01:154.4 °C97 %3.9 °C3 km/hNNO10 km/h3.3 1029 hPa0.2 mm
20/01/2022 01:024.4 °C97 %3.9 °C3 km/hO10 km/h3.3 1029 hPa0.2 mm
20/01/2022 01:004.4 °C97 %3.9 °C3 km/hO8 km/h3.3 1029 hPa0.2 mm
20/01/2022 00:474.3 °C97 %3.9 °C2 km/hOSO5 km/h3.9 1029 hPa0.2 mm
20/01/2022 00:454.3 °C97 %3.9 °C2 km/hO8 km/h3.9 1029 hPa0.2 mm
20/01/2022 00:324.3 °C97 %3.9 °C3 km/hSSO8 km/h3.3 1029 hPa-
20/01/2022 00:304.3 °C97 %3.9 °C3 km/hO8 km/h3.3 1029 hPa-
20/01/2022 00:174.3 °C97 %3.9 °C2 km/hSO8 km/h3.9 1029 hPa-
20/01/2022 00:154.3 °C97 %3.9 °C3 km/hSO8 km/h3.3 1029 hPa-
20/01/2022 00:024.3 °C97 %3.9 °C2 km/hSO5 km/h3.9 1029 hPa-
20/01/2022 00:004.3 °C97 %3.9 °C2 km/hOSO19 km/h3.9 1029 hPa0.4 mm


Minima :

Température : 2.5 °C
Humidité : 76 %
Point de rosée : 2.2 °C
Vent moyen : 2 km/h
Windchill : 1.1
Pression atm. : 1028 hPa
Maxima :

Température : 8.2 °C
Humidité : 98 %
Point de rosée : 5.0 °C
Vent moyen : 8 km/h
Windchill : 7.8
Pression atm. : 1032 hPa
Rafales max : 21 km/h
Cumul de pluie sur 24H : 0.4 mm

Yvoy-le-Marron est une commune du département Loir-et-Cher (41).
La station météorologique du réseau de l'association la plus proche de Yvoy-le-Marron est celle de Olivet



Icône Facebook Association Météo Centre Icône Twitter Association Météo Centre Icône Chaîne Youtube Association Météo Centre Icône contact Association Météo Centre Icône Insta Association Météo Centre